createdAt,value
2018-07-27T00:00:14.253Z,99.99
2018-07-27T00:01:14.127Z,99.99
2018-07-27T00:02:14.007Z,99.99
2018-07-27T00:03:13.886Z,99.99
2018-07-27T00:04:13.762Z,99.99
2018-07-27T00:05:13.642Z,99.99
2018-07-27T00:06:13.516Z,99.99
2018-07-27T00:07:13.396Z,99.99
2018-07-27T00:08:13.273Z,99.99
2018-07-27T00:09:13.157Z,99.99
2018-07-27T00:10:13.031Z,99.99
2018-07-27T00:11:12.927Z,99.99
2018-07-27T00:12:12.790Z,99.99
2018-07-27T00:13:12.665Z,99.99
2018-07-27T00:14:12.547Z,99.99
2018-07-27T00:15:12.421Z,99.99
2018-07-27T00:16:12.302Z,99.99
2018-07-27T00:17:12.180Z,99.99
2018-07-27T00:18:12.057Z,99.99
2018-07-27T00:19:11.936Z,99.99
2018-07-27T00:20:11.814Z,99.99
2018-07-27T00:21:11.692Z,99.99
2018-07-27T00:22:11.598Z,99.99
2018-07-27T00:23:11.449Z,99.99
2018-07-27T00:24:11.328Z,99.99
2018-07-27T00:25:11.206Z,99.99
2018-07-27T00:26:11.083Z,99.99
2018-07-27T00:27:10.962Z,99.99
2018-07-27T00:28:10.839Z,99.99
2018-07-27T00:29:10.719Z,99.99
2018-07-27T00:30:10.595Z,99.99
2018-07-27T00:31:10.475Z,99.99
2018-07-27T00:32:10.352Z,99.99
2018-07-27T00:33:10.252Z,99.99
2018-07-27T00:34:10.108Z,99.99
2018-07-27T00:35:09.986Z,99.99
2018-07-27T00:36:09.871Z,99.99
2018-07-27T00:37:09.744Z,99.99
2018-07-27T00:38:09.621Z,99.99
2018-07-27T00:39:09.502Z,99.99
2018-07-27T00:40:09.376Z,99.99
2018-07-27T00:41:09.258Z,99.99
2018-07-27T00:42:09.136Z,99.99
2018-07-27T00:43:09.613Z,99.99
2018-07-27T00:44:08.891Z,99.99
2018-07-27T00:45:08.770Z,99.99
2018-07-27T00:46:08.647Z,99.99
2018-07-27T00:47:08.532Z,99.99
2018-07-27T00:48:08.403Z,99.99
2018-07-27T00:49:08.282Z,99.99
2018-07-27T00:50:08.159Z,99.99
2018-07-27T00:51:08.047Z,99.99
2018-07-27T00:52:07.916Z,99.99
2018-07-27T00:53:07.797Z,99.99
2018-07-27T00:54:07.672Z,99.99
2018-07-27T00:55:07.552Z,99.99
2018-07-27T00:56:07.426Z,99.99
2018-07-27T00:57:07.305Z,99.99
2018-07-27T00:58:07.184Z,99.99
2018-07-27T00:59:07.063Z,99.99
2018-07-27T01:00:06.942Z,99.99
2018-07-27T01:01:06.819Z,99.99
2018-07-27T01:02:06.697Z,99.99
2018-07-27T01:03:06.579Z,99.99
2018-07-27T01:04:06.453Z,99.99
2018-07-27T01:05:06.333Z,99.99
2018-07-27T01:06:06.211Z,99.99
2018-07-27T01:07:06.087Z,99.99
2018-07-27T01:08:05.968Z,99.99
2018-07-27T01:09:05.849Z,99.99
2018-07-27T01:10:05.724Z,99.99
2018-07-27T01:11:05.599Z,99.99
2018-07-27T01:12:05.618Z,99.99
2018-07-27T01:13:05.356Z,99.99
2018-07-27T01:14:05.233Z,99.99
2018-07-27T01:15:05.111Z,99.99
2018-07-27T01:16:04.989Z,99.99
2018-07-27T01:17:04.872Z,99.99
2018-07-27T01:18:04.746Z,99.99
2018-07-27T01:19:04.623Z,99.99
2018-07-27T01:20:04.503Z,99.99
2018-07-27T01:21:04.381Z,99.99
2018-07-27T01:22:04.257Z,99.99
2018-07-27T01:23:04.133Z,99.99
2018-07-27T01:24:04.017Z,99.99
2018-07-27T01:25:03.889Z,99.99
2018-07-27T01:26:03.770Z,99.99
2018-07-27T01:27:03.649Z,99.99
2018-07-27T01:28:03.526Z,99.99
2018-07-27T01:29:03.406Z,99.99
2018-07-27T01:30:03.331Z,99.99
2018-07-27T01:31:03.161Z,99.99
2018-07-27T01:32:03.038Z,99.99
2018-07-27T01:33:02.918Z,99.99
2018-07-27T01:34:02.793Z,99.99
2018-07-27T01:35:02.673Z,99.99
2018-07-27T01:36:02.548Z,99.99
2018-07-27T01:37:02.429Z,99.99
2018-07-27T01:38:02.307Z,99.99
2018-07-27T01:39:02.184Z,99.99
2018-07-27T01:40:02.061Z,99.99
2018-07-27T01:41:01.945Z,99.99
2018-07-27T01:42:01.817Z,99.99
2018-07-27T01:43:01.693Z,99.99
2018-07-27T01:44:01.575Z,99.99
2018-07-27T01:45:01.458Z,99.99
2018-07-27T01:46:01.331Z,99.99
2018-07-27T01:47:01.207Z,99.99
2018-07-27T01:48:01.084Z,99.99
2018-07-27T01:49:00.962Z,99.99
2018-07-27T01:50:00.841Z,99.99
2018-07-27T01:51:00.789Z,99.99
2018-07-27T01:52:00.598Z,99.99
2018-07-27T01:53:00.472Z,99.99
2018-07-27T01:54:00.352Z,99.99
2018-07-27T01:55:00.229Z,99.99
2018-07-27T01:56:00.108Z,99.99
2018-07-27T01:56:59.988Z,99.99
2018-07-27T01:57:59.862Z,99.99
2018-07-27T01:58:59.741Z,99.99
2018-07-27T01:59:59.629Z,99.99
2018-07-27T02:00:59.501Z,99.99
2018-07-27T02:01:59.375Z,99.99
2018-07-27T02:02:59.253Z,99.99
2018-07-27T02:03:59.135Z,99.99
2018-07-27T02:04:59.008Z,99.99
2018-07-27T02:05:58.912Z,99.99
2018-07-27T02:06:58.766Z,99.99
2018-07-27T02:07:58.645Z,99.99
2018-07-27T02:08:58.523Z,99.99
2018-07-27T02:09:58.400Z,99.99
2018-07-27T02:10:58.277Z,99.99
2018-07-27T02:11:58.154Z,99.99
2018-07-27T02:12:58.085Z,99.99
2018-07-27T02:13:57.908Z,99.99
2018-07-27T02:14:57.788Z,99.99
2018-07-27T02:15:57.667Z,99.99
2018-07-27T02:16:57.544Z,99.99
2018-07-27T02:17:57.420Z,99.99
2018-07-27T02:18:57.301Z,99.99
2018-07-27T02:19:57.177Z,99.99
2018-07-27T02:20:57.056Z,99.99
2018-07-27T02:21:56.930Z,99.99
2018-07-27T02:22:56.809Z,99.99
2018-07-27T02:23:56.688Z,99.99
2018-07-27T02:24:56.568Z,99.99
2018-07-27T02:25:56.443Z,99.99
2018-07-27T02:26:56.321Z,99.99
2018-07-27T02:27:56.200Z,99.99
2018-07-27T02:28:56.077Z,99.99
2018-07-27T02:29:55.953Z,99.99
2018-07-27T02:30:55.831Z,99.99
2018-07-27T02:31:55.742Z,99.99
2018-07-27T02:32:55.590Z,99.99
2018-07-27T02:33:55.532Z,99.99
2018-07-27T02:34:55.344Z,99.99
2018-07-27T02:35:55.220Z,99.99
2018-07-27T02:36:55.097Z,99.99
2018-07-27T02:37:54.977Z,99.99
2018-07-27T02:38:54.854Z,99.99
2018-07-27T02:39:55.778Z,99.99
2018-07-27T02:40:54.613Z,99.99
2018-07-27T02:41:54.487Z,99.99
2018-07-27T02:42:54.364Z,99.99
2018-07-27T02:43:54.247Z,99.99
2018-07-27T02:44:54.121Z,99.99
2018-07-27T02:45:53.998Z,99.99
2018-07-27T02:46:53.875Z,99.99
2018-07-27T02:47:53.759Z,99.99
2018-07-27T02:48:53.632Z,99.99
2018-07-27T02:49:53.508Z,99.99
2018-07-27T02:50:53.386Z,99.99
2018-07-27T02:51:53.265Z,99.99
2018-07-27T02:52:53.144Z,99.99
2018-07-27T02:53:53.019Z,99.99
2018-07-27T02:54:52.898Z,99.99
2018-07-27T02:55:52.780Z,99.99
2018-07-27T02:56:52.654Z,99.99
2018-07-27T02:57:52.529Z,99.99
2018-07-27T02:58:52.409Z,99.99
2018-07-27T02:59:52.289Z,99.99
2018-07-27T03:00:52.164Z,99.99
2018-07-27T03:01:52.040Z,99.99
2018-07-27T03:02:51.920Z,99.99
2018-07-27T03:03:51.799Z,99.99
2018-07-27T03:04:51.674Z,99.99
2018-07-27T03:05:51.560Z,99.99
2018-07-27T03:06:51.434Z,99.99
2018-07-27T03:07:51.311Z,99.99
2018-07-27T03:08:51.616Z,99.99
2018-07-27T03:09:51.110Z,99.99
2018-07-27T03:10:50.940Z,99.99
2018-07-27T03:11:50.822Z,99.99
2018-07-27T03:12:50.696Z,99.99
2018-07-27T03:13:50.572Z,99.99
2018-07-27T03:14:50.461Z,99.99
2018-07-27T03:15:50.331Z,99.99
2018-07-27T03:16:50.207Z,99.99
2018-07-27T03:17:50.082Z,99.99
2018-07-27T03:18:49.960Z,99.99
2018-07-27T03:19:49.844Z,99.99
2018-07-27T03:20:49.719Z,99.99
2018-07-27T03:21:49.594Z,99.99
2018-07-27T03:22:49.473Z,99.99
2018-07-27T03:23:49.353Z,99.99
2018-07-27T03:24:49.227Z,99.99
2018-07-27T03:25:49.105Z,99.99
2018-07-27T03:26:48.981Z,99.99
2018-07-27T03:27:48.859Z,99.99
2018-07-27T03:28:48.735Z,99.99
2018-07-27T03:29:48.651Z,99.99
2018-07-27T03:30:48.494Z,99.99
2018-07-27T03:31:48.368Z,99.99
2018-07-27T03:32:48.249Z,99.99
2018-07-27T03:33:48.125Z,99.99
2018-07-27T03:34:48.003Z,99.99
2018-07-27T03:35:47.878Z,99.99
2018-07-27T03:36:47.760Z,99.99
2018-07-27T03:37:47.653Z,99.99
2018-07-27T03:38:47.515Z,99.99
2018-07-27T03:39:47.389Z,99.99
2018-07-27T03:40:47.265Z,99.99
2018-07-27T03:41:47.144Z,99.99
2018-07-27T03:42:47.022Z,99.99
2018-07-27T03:43:46.966Z,99.99
2018-07-27T03:44:46.776Z,99.99
2018-07-27T03:45:46.656Z,99.99
2018-07-27T03:46:46.532Z,99.99
2018-07-27T03:47:46.419Z,99.99
2018-07-27T03:48:46.287Z,99.99
2018-07-27T03:49:46.167Z,99.99
2018-07-27T03:50:46.042Z,99.99
2018-07-27T03:51:45.922Z,99.99
2018-07-27T03:52:45.798Z,99.99
2018-07-27T03:53:45.676Z,99.99
2018-07-27T03:54:45.551Z,99.99
2018-07-27T03:55:45.430Z,99.99
2018-07-27T03:56:45.308Z,99.99
2018-07-27T03:57:45.186Z,99.99
2018-07-27T03:58:45.061Z,99.99
2018-07-27T03:59:44.941Z,99.99
2018-07-27T04:00:44.820Z,99.99
2018-07-27T04:01:44.698Z,99.99
2018-07-27T04:02:44.574Z,99.99
2018-07-27T04:03:44.448Z,99.99
2018-07-27T04:04:44.328Z,99.99
2018-07-27T04:05:44.205Z,99.99
2018-07-27T04:06:44.086Z,99.99
2018-07-27T04:07:43.964Z,99.99
2018-07-27T04:08:43.842Z,99.99
2018-07-27T04:09:43.719Z,99.99
2018-07-27T04:10:43.597Z,99.99
2018-07-27T04:11:43.468Z,99.99
2018-07-27T04:12:43.350Z,99.99
2018-07-27T04:13:43.223Z,99.99
2018-07-27T04:14:43.101Z,99.99
2018-07-27T04:15:42.977Z,99.99
2018-07-27T04:16:42.856Z,99.99
2018-07-27T04:17:42.733Z,99.99
2018-07-27T04:18:42.611Z,99.99
2018-07-27T04:19:42.489Z,99.99
2018-07-27T04:20:42.366Z,99.99
2018-07-27T04:21:42.243Z,99.99
2018-07-27T04:22:42.122Z,99.99
2018-07-27T04:23:42.000Z,99.99
2018-07-27T04:24:41.883Z,99.99
2018-07-27T04:25:41.765Z,99.99
2018-07-27T04:26:41.657Z,99.99
2018-07-27T04:27:41.515Z,99.99
2018-07-27T04:28:41.389Z,99.99
2018-07-27T04:29:41.264Z,99.99
2018-07-27T04:30:41.145Z,99.99
2018-07-27T04:31:41.025Z,99.99
2018-07-27T04:32:40.901Z,99.99
2018-07-27T04:33:40.779Z,99.99
2018-07-27T04:34:40.656Z,99.99
2018-07-27T04:35:40.586Z,99.99
2018-07-27T04:36:40.408Z,99.99
2018-07-27T04:37:40.287Z,99.99
2018-07-27T04:38:40.165Z,99.99
2018-07-27T04:39:40.044Z,99.99
2018-07-27T04:40:39.920Z,99.99
2018-07-27T04:41:39.799Z,99.99
2018-07-27T04:42:39.675Z,99.99
2018-07-27T04:43:39.554Z,99.99
2018-07-27T04:44:39.431Z,99.99
2018-07-27T04:45:39.309Z,99.99
2018-07-27T04:46:39.186Z,99.99
2018-07-27T04:47:39.066Z,99.99
2018-07-27T04:48:38.940Z,99.99
2018-07-27T04:49:38.817Z,99.99
2018-07-27T04:50:38.696Z,99.99
2018-07-27T04:51:38.574Z,99.99
2018-07-27T04:52:38.451Z,99.99
2018-07-27T04:53:38.328Z,99.99
2018-07-27T04:54:38.208Z,99.99
2018-07-27T04:55:38.086Z,99.99
2018-07-27T04:56:38.045Z,99.99
2018-07-27T04:57:37.842Z,99.99
2018-07-27T04:58:37.719Z,99.99
2018-07-27T04:59:37.596Z,99.99
2018-07-27T05:00:37.473Z,99.99
2018-07-27T05:01:37.350Z,99.99
2018-07-27T05:02:37.234Z,99.99
2018-07-27T05:03:37.108Z,99.99
2018-07-27T05:04:36.995Z,99.99
2018-07-27T05:05:37.672Z,99.99
2018-07-27T05:06:36.748Z,99.99
2018-07-27T05:07:36.623Z,99.99
2018-07-27T05:08:36.498Z,99.99
2018-07-27T05:09:36.380Z,99.99
2018-07-27T05:10:36.260Z,99.99
2018-07-27T05:11:36.134Z,99.99
2018-07-27T05:12:36.011Z,99.99
2018-07-27T05:13:35.891Z,99.99
2018-07-27T05:14:35.772Z,99.99
2018-07-27T05:15:35.648Z,99.99
2018-07-27T05:16:35.523Z,99.99
2018-07-27T05:17:35.401Z,99.99
2018-07-27T05:18:35.280Z,99.99
2018-07-27T05:19:35.161Z,99.99
2018-07-27T05:20:35.040Z,99.99
2018-07-27T05:21:34.917Z,99.99
2018-07-27T05:22:34.794Z,99.99
2018-07-27T05:23:34.673Z,99.99
2018-07-27T05:24:34.611Z,99.99
2018-07-27T05:25:34.432Z,99.99
2018-07-27T05:26:34.308Z,99.99
2018-07-27T05:27:34.229Z,99.99
2018-07-27T05:28:34.071Z,98.43
2018-07-27T05:29:33.953Z,99.29
2018-07-27T05:30:33.835Z,96.56
2018-07-27T05:31:33.717Z,97.61
2018-07-27T05:32:33.624Z,99.63
2018-07-27T05:33:33.494Z,99.99
2018-07-27T05:34:33.733Z,99.99
2018-07-27T05:35:33.217Z,98.52
2018-07-27T05:36:33.100Z,99.87
2018-07-27T05:37:32.974Z,99.99
2018-07-27T05:38:32.853Z,99.44
2018-07-27T05:39:32.733Z,98.96
2018-07-27T05:40:32.614Z,96.66
2018-07-27T05:41:32.494Z,97.14
2018-07-27T05:42:32.370Z,98.00
2018-07-27T05:43:32.248Z,98.72
2018-07-27T05:44:32.127Z,97.42
2018-07-27T05:45:32.008Z,96.56
2018-07-27T05:46:31.886Z,96.85
2018-07-27T05:47:31.768Z,98.38
2018-07-27T05:48:31.668Z,96.66
2018-07-27T05:49:31.533Z,96.42
2018-07-27T05:50:31.402Z,96.89
2018-07-27T05:51:31.284Z,95.36
2018-07-27T05:52:31.164Z,96.03
2018-07-27T05:53:31.044Z,94.02
2018-07-27T05:54:30.926Z,92.68
2018-07-27T05:55:30.801Z,91.14
2018-07-27T05:56:30.682Z,92.58
2018-07-27T05:57:30.558Z,91.52
2018-07-27T05:58:30.443Z,92.58
2018-07-27T05:59:30.358Z,90.75
2018-07-27T06:00:30.197Z,90.28
2018-07-27T06:01:30.079Z,89.79
2018-07-27T06:02:29.955Z,92.53
2018-07-27T06:03:29.839Z,87.05
2018-07-27T06:04:29.718Z,89.84
2018-07-27T06:05:29.594Z,86.87
2018-07-27T06:06:29.473Z,87.73
2018-07-27T06:07:29.353Z,89.98
2018-07-27T06:08:29.238Z,90.94
2018-07-27T06:09:29.114Z,90.66
2018-07-27T06:10:28.992Z,89.69
2018-07-27T06:11:28.873Z,86.43
2018-07-27T06:12:28.753Z,88.35
2018-07-27T06:13:28.633Z,88.01
2018-07-27T06:14:28.519Z,86.09
2018-07-27T06:15:28.392Z,84.55
2018-07-27T06:16:28.276Z,84.26
2018-07-27T06:17:28.154Z,83.11
2018-07-27T06:18:28.033Z,85.95
2018-07-27T06:19:27.919Z,85.89
2018-07-27T06:20:27.792Z,84.55
2018-07-27T06:21:27.672Z,83.20
2018-07-27T06:22:27.552Z,81.43
2018-07-27T06:23:27.466Z,84.03
2018-07-27T06:24:27.361Z,83.07
2018-07-27T06:25:27.200Z,80.76
2018-07-27T06:26:27.073Z,81.34
2018-07-27T06:27:26.958Z,83.31
2018-07-27T06:28:26.839Z,85.52
2018-07-27T06:29:26.714Z,84.66
2018-07-27T06:30:26.601Z,83.60
2018-07-27T06:31:26.478Z,83.03
2018-07-27T06:32:26.361Z,86.14
2018-07-27T06:33:26.235Z,87.19
2018-07-27T06:34:26.118Z,83.93
2018-07-27T06:35:25.994Z,83.26
2018-07-27T06:36:25.874Z,84.75
2018-07-27T06:37:25.781Z,84.31
2018-07-27T06:38:25.639Z,81.82
2018-07-27T06:39:25.523Z,81.82
2018-07-27T06:40:25.396Z,84.70
2018-07-27T06:41:25.283Z,83.59
2018-07-27T06:42:25.159Z,77.44
2018-07-27T06:43:25.038Z,76.29
2018-07-27T06:44:24.924Z,76.19
2018-07-27T06:45:24.797Z,78.02
2018-07-27T06:46:24.679Z,78.34
2018-07-27T06:47:24.560Z,77.67
2018-07-27T06:48:24.439Z,77.96
2018-07-27T06:49:24.342Z,81.46
2018-07-27T06:50:24.201Z,78.19
2018-07-27T06:51:24.083Z,76.94
2018-07-27T06:52:23.968Z,78.00
2018-07-27T06:53:23.849Z,76.26
2018-07-27T06:54:23.724Z,77.90
2018-07-27T06:55:23.604Z,76.98
2018-07-27T06:56:23.493Z,76.50
2018-07-27T06:57:23.365Z,73.00
2018-07-27T06:58:23.248Z,72.80
2018-07-27T06:59:23.130Z,72.61
2018-07-27T07:00:23.008Z,72.71
2018-07-27T07:01:22.894Z,75.98
2018-07-27T07:02:23.704Z,75.49
2018-07-27T07:03:22.691Z,73.96
2018-07-27T07:04:22.535Z,73.03
2018-07-27T07:05:22.415Z,72.74
2018-07-27T07:06:22.297Z,71.78
2018-07-27T07:07:22.274Z,72.26
2018-07-27T07:08:22.056Z,72.65
2018-07-27T07:09:21.938Z,73.03
2018-07-27T07:10:21.820Z,73.03
2018-07-27T07:11:21.701Z,72.45
2018-07-27T07:12:21.584Z,71.78
2018-07-27T07:13:21.465Z,73.13
2018-07-27T07:14:21.397Z,73.07
2018-07-27T07:15:21.224Z,73.36
2018-07-27T07:16:21.107Z,72.88
2018-07-27T07:17:20.992Z,73.55
2018-07-27T07:18:20.871Z,75.19
2018-07-27T07:19:20.753Z,73.01
2018-07-27T07:20:20.634Z,73.10
2018-07-27T07:21:20.515Z,73.62
2018-07-27T07:22:20.400Z,71.89
2018-07-27T07:23:20.278Z,72.72
2018-07-27T07:24:20.162Z,69.41
2018-07-27T07:25:20.148Z,73.36
2018-07-27T07:26:19.921Z,72.68
2018-07-27T07:27:19.802Z,73.58
2018-07-27T07:28:19.684Z,70.89
2018-07-27T07:29:19.579Z,70.92
2018-07-27T07:30:19.449Z,71.12
2018-07-27T07:31:19.708Z,71.50
2018-07-27T07:32:19.224Z,70.35
2018-07-27T07:33:19.102Z,69.54
2018-07-27T07:34:18.975Z,70.60
2018-07-27T07:35:18.856Z,70.50
2018-07-27T07:36:18.738Z,70.02
2018-07-27T07:37:18.617Z,71.76
2018-07-27T07:38:18.501Z,71.66
2018-07-27T07:39:18.383Z,71.37
2018-07-27T07:40:18.287Z,70.25
2018-07-27T07:41:18.148Z,70.54
2018-07-27T07:42:18.031Z,69.48
2018-07-27T07:43:17.912Z,68.04
2018-07-27T07:44:17.824Z,69.48
2018-07-27T07:45:17.674Z,70.54
2018-07-27T07:46:17.557Z,69.57
2018-07-27T07:47:17.439Z,69.77
2018-07-27T07:48:17.530Z,71.15
2018-07-27T07:49:17.282Z,69.80
2018-07-27T07:50:17.084Z,67.49
2018-07-27T07:51:16.968Z,68.07
2018-07-27T07:52:16.851Z,71.15
2018-07-27T07:53:16.734Z,69.23
2018-07-27T07:54:16.612Z,68.59
2018-07-27T07:55:16.497Z,68.19
2018-07-27T07:56:16.379Z,68.10
2018-07-27T07:57:16.260Z,67.52
2018-07-27T07:58:16.143Z,67.52
2018-07-27T07:59:16.031Z,69.55
2018-07-27T08:00:15.911Z,68.65
2018-07-27T08:01:15.790Z,70.86
2018-07-27T08:02:15.673Z,71.58
2018-07-27T08:03:15.558Z,68.61
2018-07-27T08:04:15.459Z,70.73
2018-07-27T08:05:15.320Z,70.28
2018-07-27T08:06:15.207Z,70.42
2018-07-27T08:07:15.088Z,68.93
2018-07-27T08:08:14.969Z,69.96
2018-07-27T08:09:14.856Z,70.92
2018-07-27T08:10:14.733Z,71.41
2018-07-27T08:11:14.650Z,70.44
2018-07-27T08:12:14.500Z,71.54
2018-07-27T08:13:14.384Z,70.80
2018-07-27T08:14:14.267Z,69.74
2018-07-27T08:15:14.404Z,67.97
2018-07-27T08:16:14.041Z,70.28
2018-07-27T08:17:13.920Z,71.28
2018-07-27T08:18:13.796Z,66.52
2018-07-27T08:19:14.318Z,69.13
2018-07-27T08:20:13.567Z,68.19
2018-07-27T08:21:13.446Z,67.43
2018-07-27T08:22:13.327Z,69.29
2018-07-27T08:23:13.210Z,66.17
2018-07-27T08:24:14.213Z,66.56
2018-07-27T08:25:15.637Z,65.43
2018-07-27T08:26:12.867Z,64.66
2018-07-27T08:27:12.746Z,65.14
2018-07-27T08:28:12.629Z,64.66
2018-07-27T08:29:12.513Z,64.56
2018-07-27T08:30:12.412Z,64.21
2018-07-27T08:31:12.279Z,64.31
2018-07-27T08:32:12.160Z,63.12
2018-07-27T08:33:12.044Z,64.01
2018-07-27T08:34:11.924Z,64.47
2018-07-27T08:35:11.808Z,66.01
2018-07-27T08:36:11.698Z,63.02
2018-07-27T08:37:11.573Z,63.60
2018-07-27T08:38:11.460Z,63.79
2018-07-27T08:39:11.341Z,63.02
2018-07-27T08:40:11.229Z,63.70
2018-07-27T08:41:11.110Z,63.05
2018-07-27T08:42:10.992Z,61.99
2018-07-27T08:43:10.883Z,62.76
2018-07-27T08:44:10.760Z,63.37
2018-07-27T08:45:10.643Z,62.89
2018-07-27T08:46:10.526Z,61.95
2018-07-27T08:47:10.426Z,61.47
2018-07-27T08:48:10.293Z,60.41
2018-07-27T08:49:10.179Z,60.02
2018-07-27T08:50:10.063Z,60.76
2018-07-27T08:51:09.943Z,62.63
2018-07-27T08:52:09.827Z,60.38
2018-07-27T08:53:09.710Z,60.67
2018-07-27T08:54:09.599Z,61.54
2018-07-27T08:55:09.481Z,60.83
2018-07-27T08:56:09.361Z,62.12
2018-07-27T08:57:09.246Z,61.34
2018-07-27T08:58:09.131Z,62.12
2018-07-27T08:59:09.730Z,63.02
2018-07-27T09:00:08.899Z,61.95
2018-07-27T09:01:08.782Z,63.53
2018-07-27T09:02:08.664Z,62.08
2018-07-27T09:03:08.549Z,61.53
2018-07-27T09:04:08.433Z,59.50
2018-07-27T09:05:08.320Z,59.21
2018-07-27T09:06:08.207Z,62.11
2018-07-27T09:07:08.086Z,59.40
2018-07-27T09:08:07.975Z,59.76
2018-07-27T09:09:07.853Z,60.44
2018-07-27T09:10:07.742Z,61.79
2018-07-27T09:11:07.629Z,60.85
2018-07-27T09:12:07.509Z,59.95
2018-07-27T09:13:07.391Z,60.05
2018-07-27T09:14:07.276Z,60.53
2018-07-27T09:15:07.162Z,61.50
2018-07-27T09:16:07.045Z,60.57
2018-07-27T09:17:06.928Z,59.79
2018-07-27T09:18:06.816Z,59.31
2018-07-27T09:19:06.698Z,59.38
2018-07-27T09:20:06.582Z,60.44
2018-07-27T09:21:06.467Z,60.14
2018-07-27T09:22:06.351Z,61.11
2018-07-27T09:23:06.235Z,60.53
2018-07-27T09:24:06.120Z,60.05
2018-07-27T09:25:06.215Z,60.41
2018-07-27T09:26:05.887Z,60.11
2018-07-27T09:27:05.779Z,60.50
2018-07-27T09:28:05.748Z,62.08
2018-07-27T09:29:05.815Z,62.37
2018-07-27T09:30:06.213Z,59.95
2018-07-27T09:31:05.310Z,60.08
2018-07-27T09:32:05.201Z,60.17
2018-07-27T09:33:05.078Z,59.91
2018-07-27T09:34:04.968Z,58.34
2018-07-27T09:35:04.855Z,58.95
2018-07-27T09:36:04.733Z,59.23
2018-07-27T09:37:04.615Z,59.14
2018-07-27T09:38:04.498Z,57.88
2018-07-27T09:39:04.381Z,57.46
2018-07-27T09:40:04.368Z,59.01
2018-07-27T09:41:04.155Z,58.47
2018-07-27T09:42:04.036Z,57.69
2018-07-27T09:43:03.935Z,58.27
2018-07-27T09:44:03.805Z,56.07
2018-07-27T09:45:03.691Z,55.40
2018-07-27T09:46:03.585Z,55.00
2018-07-27T09:47:03.460Z,54.71
2018-07-27T09:48:03.345Z,55.42
2018-07-27T09:49:03.228Z,54.74
2018-07-27T09:50:03.304Z,54.13
2018-07-27T09:51:02.995Z,53.55
2018-07-27T09:52:02.898Z,53.63
2018-07-27T09:53:02.768Z,52.56
2018-07-27T09:54:02.653Z,54.21
2018-07-27T09:55:02.535Z,53.43
2018-07-27T09:56:02.421Z,51.10
2018-07-27T09:57:02.308Z,51.10
2018-07-27T09:58:02.193Z,51.59
2018-07-27T09:59:02.076Z,51.98
2018-07-27T10:00:04.462Z,51.13
2018-07-27T10:01:01.847Z,51.13
2018-07-27T10:02:01.731Z,50.67
2018-07-27T10:03:01.615Z,50.48
2018-07-27T10:04:03.166Z,47.57
2018-07-27T10:05:01.385Z,49.51
2018-07-27T10:06:01.272Z,47.09
2018-07-27T10:07:01.155Z,47.77
2018-07-27T10:08:01.043Z,48.06
2018-07-27T10:09:00.925Z,47.09
2018-07-27T10:10:00.809Z,47.20
2018-07-27T10:11:00.692Z,49.63
2018-07-27T10:12:00.698Z,50.62
2018-07-27T10:13:00.464Z,46.75
2018-07-27T10:14:02.169Z,47.83
2018-07-27T10:15:00.237Z,46.60
2018-07-27T10:16:00.121Z,45.04
2018-07-27T10:17:00.009Z,42.91
2018-07-27T10:17:59.889Z,41.70
2018-07-27T10:18:59.775Z,41.78
2018-07-27T10:19:59.664Z,41.97
2018-07-27T10:20:59.547Z,43.43
2018-07-27T10:21:59.435Z,44.90
2018-07-27T10:22:59.320Z,46.38
2018-07-27T10:23:59.207Z,46.01
2018-07-27T10:24:59.090Z,47.40
2018-07-27T10:25:58.978Z,44.48
2018-07-27T10:26:59.791Z,43.01
2018-07-27T10:27:58.752Z,42.89
2018-07-27T10:28:58.637Z,42.11
2018-07-27T10:29:58.522Z,41.80
2018-07-27T10:30:58.411Z,41.49
2018-07-27T10:31:58.325Z,42.85
2018-07-27T10:32:58.180Z,43.31
2018-07-27T10:33:58.072Z,45.22
2018-07-27T10:34:57.954Z,45.32
2018-07-27T10:35:57.841Z,45.98
2018-07-27T10:36:57.726Z,45.59
2018-07-27T10:37:57.612Z,46.61
2018-07-27T10:38:57.500Z,47.31
2018-07-27T10:39:57.387Z,44.67
2018-07-27T10:40:57.278Z,45.74
2018-07-27T10:41:57.157Z,46.63
2018-07-27T10:42:57.040Z,49.75
2018-07-27T10:43:56.929Z,49.19
2018-07-27T10:44:56.902Z,48.85
2018-07-27T10:45:56.697Z,45.15
2018-07-27T10:46:56.590Z,45.27
2018-07-27T10:47:56.472Z,44.24
2018-07-27T10:48:56.359Z,45.53
2018-07-27T10:49:56.242Z,44.19
2018-07-27T10:50:56.131Z,42.76
2018-07-27T10:51:56.019Z,41.69
2018-07-27T10:52:55.901Z,41.01
2018-07-27T10:53:55.910Z,38.46
2018-07-27T10:54:55.677Z,38.04
2018-07-27T10:55:56.048Z,39.29
2018-07-27T10:56:55.452Z,40.54
2018-07-27T10:57:55.385Z,42.40
2018-07-27T10:58:55.225Z,39.57
2018-07-27T10:59:55.111Z,39.76
2018-07-27T11:00:54.998Z,41.51
2018-07-27T11:01:54.887Z,45.34
2018-07-27T11:02:54.772Z,40.97
2018-07-27T11:03:54.661Z,40.69
2018-07-27T11:04:54.548Z,41.10
2018-07-27T11:05:54.436Z,40.64
2018-07-27T11:06:54.385Z,38.29
2018-07-27T11:07:54.214Z,39.72
2018-07-27T11:08:54.163Z,38.73
2018-07-27T11:09:54.068Z,40.13
2018-07-27T11:10:53.876Z,38.79
2018-07-27T11:11:53.762Z,38.13
2018-07-27T11:12:53.652Z,38.93
2018-07-27T11:13:55.129Z,37.76
2018-07-27T11:14:53.439Z,36.96
2018-07-27T11:15:53.317Z,37.02
2018-07-27T11:16:53.204Z,38.27
2018-07-27T11:17:53.170Z,36.99
2018-07-27T11:18:52.982Z,37.66
2018-07-27T11:19:52.870Z,39.75
2018-07-27T11:20:52.871Z,39.78
2018-07-27T11:21:52.757Z,35.71
2018-07-27T11:22:52.537Z,35.61
2018-07-27T11:23:52.428Z,35.29
2018-07-27T11:24:52.315Z,35.80
2018-07-27T11:25:52.203Z,34.50
2018-07-27T11:26:52.094Z,35.68
2018-07-27T11:27:51.981Z,38.05
2018-07-27T11:28:51.869Z,36.69
2018-07-27T11:29:51.760Z,35.05
2018-07-27T11:30:51.667Z,34.35
2018-07-27T11:31:51.536Z,33.36
2018-07-27T11:32:51.424Z,34.14
2018-07-27T11:33:51.316Z,33.26
2018-07-27T11:34:51.207Z,33.11
2018-07-27T11:35:51.094Z,35.06
2018-07-27T11:36:50.981Z,33.04
2018-07-27T11:37:50.884Z,32.45
2018-07-27T11:38:50.764Z,33.34
2018-07-27T11:39:50.653Z,32.26
2018-07-27T11:40:50.547Z,30.38
2018-07-27T11:41:50.432Z,30.77
2018-07-27T11:42:50.319Z,33.01
2018-07-27T11:43:51.204Z,33.43
2018-07-27T11:44:50.099Z,32.57
2018-07-27T11:45:49.989Z,31.90
2018-07-27T11:46:49.881Z,29.57
2018-07-27T11:47:49.770Z,29.38
2018-07-27T11:48:49.662Z,28.30
2018-07-27T11:49:49.550Z,29.56
2018-07-27T11:50:49.440Z,28.38
2018-07-27T11:51:49.332Z,29.07
2018-07-27T11:52:49.228Z,31.33
2018-07-27T11:53:49.111Z,29.07
2018-07-27T11:54:49.843Z,27.72
2018-07-27T11:55:48.893Z,28.89
2018-07-27T11:56:48.783Z,28.20
2018-07-27T11:57:48.674Z,29.59
2018-07-27T11:58:48.569Z,30.66
2018-07-27T11:59:48.458Z,29.21
2018-07-27T12:00:48.346Z,27.36
2018-07-27T12:01:50.207Z,28.99
2018-07-27T12:02:48.129Z,29.54
2018-07-27T12:03:48.019Z,29.64
2018-07-27T12:04:47.909Z,29.56
2018-07-27T12:05:47.803Z,28.11
2018-07-27T12:06:47.694Z,29.59
2018-07-27T12:07:47.585Z,29.41
2018-07-27T12:08:47.473Z,29.39
2018-07-27T12:09:47.366Z,30.00
2018-07-27T12:10:47.259Z,29.61
2018-07-27T12:11:47.148Z,29.38
2018-07-27T12:12:47.039Z,29.79
2018-07-27T12:13:46.946Z,30.19
2018-07-27T12:14:46.970Z,28.44
2018-07-27T12:15:46.714Z,28.34
2018-07-27T12:16:46.606Z,27.97
2018-07-27T12:17:46.496Z,28.26
2018-07-27T12:18:46.391Z,27.76
2018-07-27T12:19:46.282Z,27.94
2018-07-27T12:20:46.348Z,28.83
2018-07-27T12:21:46.276Z,27.93
2018-07-27T12:22:45.966Z,29.71
2018-07-27T12:23:45.845Z,28.06
2018-07-27T12:24:45.736Z,28.06
2018-07-27T12:25:45.631Z,29.25
2018-07-27T12:26:45.518Z,28.45
2018-07-27T12:27:45.411Z,29.16
2018-07-27T12:28:45.300Z,29.66
2018-07-27T12:29:45.193Z,28.02
2018-07-27T12:30:45.087Z,26.51
2018-07-27T12:31:44.977Z,28.55
2018-07-27T12:32:44.877Z,27.48
2018-07-27T12:33:44.759Z,27.19
2018-07-27T12:34:44.650Z,27.67
2018-07-27T12:35:44.543Z,25.72
2018-07-27T12:36:44.439Z,26.31
2018-07-27T12:37:44.326Z,27.77
2018-07-27T12:38:44.218Z,28.18
2018-07-27T12:39:44.109Z,26.62
2018-07-27T12:40:43.998Z,26.62
2018-07-27T12:41:43.891Z,27.10
2018-07-27T12:42:43.836Z,26.23
2018-07-27T12:43:43.676Z,26.44
2018-07-27T12:44:43.566Z,26.12
2018-07-27T12:45:43.458Z,26.32
2018-07-27T12:46:43.348Z,26.73
2018-07-27T12:47:45.223Z,26.65
2018-07-27T12:48:44.725Z,27.17
2018-07-27T12:49:43.025Z,25.31
2018-07-27T12:50:42.918Z,24.82